Tiempo atmosférico en la estación meteorológica de Benavente, Zamora (715 m.)



Fecha
DESCASC
Temp. máxima en grados centígrados (hora)
DESCASC
Temp. mínima en grados centígrados (hora)
DESCASC
Temp. media en grados centígrados
DESCASC
Racha de viento máxima en m/sg (hora)
DESCASC
Velocidad máxima media en intervalos de 10 minutos(hora)
DESCASC
Precipitaciones diarias en mm
DESCASC
Precipitaciones de 00:00 a 06:00 en mm
DESCASC
Precipitaciones de 06:00 a 12:00 en mm
DESCASC
Precipitaciones de 12:00 a 18:00 en mm
DESCASC
Precipitaciones de 18:00 a 24:00 en mm
DESCASC
05-04-2020 15.2 (12:50) 9.5 (06:20) 12.3 10.56 (16:30) 4.72 (13:40) 12.6 0 0 2.8 9.8
04-04-2020 18.9 (18:10) 1.2 (08:10) 10 10.83 (20:30) 4.72 (18:30) 0 0 0 0 0
03-04-2020 14.6 (18:00) 0.6 (08:00) 7.6 6.11 (11:00) 2.78 (11:00) 0 0 0 0 0
02-04-2020 14.2 (17:30) 6.6 (00:00) 10.4 7.5 (14:10) 4.17 (14:30) 3.4 2 1.2 0.2 0
01-04-2020 13.2 (14:50) 4.6 (00:00) 8.9 11.39 (16:00) 5 (16:00) 8.4 1.4 0 3.2 3.8
31-03-2020 8.6 (15:20) 1 (00:00) 4.8 14.44 (16:20) 7.78 (16:20) 0.4 0 0 0 0.4
30-03-2020 7.5 (17:30) 1.7 (00:00) 4.6 12.5 (21:40) 6.67 (22:00) 0 0 0 0 0
29-03-2020 18.4 (17:40) 0.4 (00:00) 9.4 13.33 (20:40) 7.22 (20:40) 0 0 0 0 0
28-03-2020 16 (15:20) -0.4 (00:00) 7.8 5.83 (00:10) 2.78 (09:20) 0 0 0 0 0
27-03-2020 12.9 (17:20) -0.2 (00:00) 6.3 11.94 (14:20) 5.83 (11:50) 0 0 0 0 0
26-03-2020 16.5 (17:30) -0.5 (-00:0) 8 8.89 (21:00) 4.17 (21:00) 0 0 0 0 0
25-03-2020 21 (16:00) 3.2 (00:00) 12.1 6.94 (15:40) 3.33 (22:50) 0 0 0 0 0
24-03-2020 16.7 (16:30) 5.3 (00:00) 11 12.22 (11:10) 5.28 (11:10) 0 0 0 0 0
23-03-2020 15.5 (16:40) 3.8 (00:00) 9.6 10 (12:30) 5.28 (11:50) 0 0 0 0 0
22-03-2020 16.9 (16:40) 6.8 (05:20) 11.8 9.44 (18:40) 2.78 (13:20) 0 0 0 0 0
21-03-2020 12.9 (14:40) 6 (00:00) 9.4 6.11 (22:40) 3.33 (09:30) 7.4 0 0 0 7.4
20-03-2020 14.5 (14:00) 7 (00:00) 10.8 7.78 (12:50) 3.33 (11:40) 4 0 0 4 0
19-03-2020 16.3 (15:10) 6.1 (00:00) 11.2 5.83 (09:30) 2.22 (16:50) 0 0 0 0 0
18-03-2020 17.7 (17:00) 4.9 (00:00) 11.3 7.22 (12:20) 3.61 (15:30) 0 0 0 0 0
17-03-2020 14.4 (16:30) 3.5 (00:00) 8.9 15 (10:40) 7.78 (10:40) 0 0 0 0 0
16-03-2020 11.5 (15:40) 2 (00:00) 6.8 15 (18:00) 8.33 (16:20) 3.2 2.8 0.4 0 0
15-03-2020 18.6 (14:10) 0.4 (00:00) 9.5 15.83 (21:10) 8.33 (20:30) 1.6 0 0 0 1.6
14-03-2020 18.4 (16:30) -0.4 (00:00) 9 5 (14:20) 2.22 (14:50) 0 0 0 0 0
13-03-2020 16.4 (15:30) 5.2 (23:59) 10.8 10 (07:10) 5.28 (10:40) 0 0 0 0 0
12-03-2020 20 (16:00) 7.8 (00:00) 13.9 10.83 (21:10) 4.72 (21:30) 0 0 0 0 0
11-03-2020 24.9 (16:30) 2.5 (00:00) 13.7 9.44 (17:10) 4.44 (17:10) 0 0 0 0 0
10-03-2020 23.4 (16:50) 3.9 (00:00) 13.6 8.06 (17:20) 3.89 (17:20) 0 0 0 0 0
09-03-2020 17.7 (17:00) 1.8 (00:00) 9.8 8.33 (10:20) 4.44 (09:50) 0 0 0 0 0

Gráficas

Temp. máximas Temp. mínimas Temp. medias Precipitaciones Rachas de viento máximas Velocidades máximas media en intervalos de 10 minutos

Datos horarios

Fecha y hora oficial Temperatura (ºC) Velocidad del viento (km/h) Dirección del viento Racha (km/h) Dirección de racha Precipitación (mm) Presión (hPa) Tendencia (hPa) Humedad (%)
2020-04-07 23:00:00 11.9 0 Calma 5 Sudeste 0 939.8 1.6 87
2020-04-07 22:00:00 11.7 0 Calma 5 Sur 0 939.2 0.6 86
2020-04-07 21:00:00 13.7 0 Calma 12 Sudeste 0 938.5 0.3 79
2020-04-07 20:00:00 15.2 5 Este 18 Este 0.2 938.2 0.2 75
2020-04-07 19:00:00 15.9 7 Sudoeste 23 Sudoeste 0.2 938.6 0.2 64
2020-04-07 18:00:00 15.1 6 Nordeste 33 Oeste 0.6 938.2 -0.6 71
2020-04-07 17:00:00 19.1 6 Sur 18 Sur 0 938 -1.4 51
2020-04-07 16:00:00 17.5 5 Este 16 Sur 0 938.4 -1.2 58
2020-04-07 15:00:00 17.8 5 Sudeste 11 Oeste 0.6 938.8 -1 60
2020-04-07 14:00:00 15.8 2 Sudoeste 18 Sudeste 0 939.4 -0.3 66
2020-04-07 13:00:00 15.9 6 Sur 14 Sur 0 939.6 0.1 65
2020-04-07 12:00:00 14.5 4 Sur 12 Este 0 939.8 0.7 73
2020-04-07 11:00:00 12.8 3 Sudeste 13 Sudeste 0 939.7 0.9 81
2020-04-07 10:00:00 11.1 4 Sudeste 10 Este 0 939.5 1 90
2020-04-07 09:00:00 10.2 5 Este 8 Este 0 939.1 0.7 92
2020-04-07 08:00:00 10.1 3 Nordeste 6 Este 0 938.8 0 92
2020-04-07 07:00:00 10.2 2 Sudeste 6 Este 0.2 938.5 -0.4 93
2020-04-07 06:00:00 10.3 0 Calma 6 Nordeste 0.2 938.4 -0.6 92
2020-04-07 05:00:00 10.5 0 Calma 8 Este 0 938.8 -0.2 92
2020-04-07 04:00:00 10.4 3 Sudeste 17 Este 0 938.9 0.1 92
2020-04-07 03:00:00 10.3 4 Sudeste 14 Este 0.2 939 0.1 92
2020-04-07 02:00:00 10.2 5 Sudeste 11 Este 0.4 939 0.1 92
2020-04-07 01:00:00 10.3 4 Sudeste 11 Sur 0 938.8 0.2 90
2020-04-07 00:00:00 10.7 4 Sur 10 Sudeste 0 938.9 1 87
2020-04-06 23:00:00 11.1 0 Calma 9 Sur 0 938.9 1.2 86
2020-04-06 22:00:00 11.4 3 Sur 10 Sur 0.4 938.6 1.2 86
2020-04-06 21:00:00 11.7 5 Sur 10 Sur 0 937.9 0.6 81
2020-04-06 20:00:00 12.1 5 Sudoeste 25 Sudoeste 0 937.7 0.5 79
2020-04-06 19:00:00 12.9 12 Sudoeste 27 Sudoeste 0 937.4 0.3 71
2020-04-06 18:00:00 13.6 15 Sudoeste 30 Sudoeste 0 937.3 0.3 61
2020-04-06 17:00:00 13.6 15 Sudoeste 35 Sur 0 937.2 0.4 64
2020-04-06 16:00:00 14.9 14 Sudoeste 41 Sudoeste 0 937.1 0.7 56
2020-04-06 15:00:00 15.7 15 Sudoeste 31 Sudoeste 0 937 0.9 52
2020-04-06 14:00:00 14.4 13 Sudoeste 30 Sudoeste 0 936.8 1 60
2020-04-06 13:00:00 14.8 13 Sudoeste 30 Sudoeste 0 936.4 1.3 61
2020-04-06 12:00:00 14.3 12 Sudoeste 27 Sudoeste 0 936.1 1.7 67
2020-04-06 11:00:00 12.8 12 Sudoeste 30 Sudoeste 0 935.8 2.5 71
2020-04-06 10:00:00 11.8 9 Sudoeste 19 Sudoeste 0 935.1 2.6 85
2020-04-06 09:00:00 11.4 9 Sudoeste 17 Oeste 0 934.4 2.3 92
2020-04-06 08:00:00 11.4 9 Sudoeste 18 Oeste 0 933.3 1.4 92
2020-04-06 07:00:00 11.6 3 Sudoeste 13 Sudoeste 0.2 932.5 0.4 92
2020-04-06 06:00:00 11.6 5 Sudoeste 10 Sudoeste 0 932.1 -0.3 93
2020-04-06 05:00:00 11.3 0 Calma 15 Este 0.4 931.9 -0.7 93
2020-04-06 04:00:00 11 0 Calma 6 Este 2.2 932.1 -0.7 93
2020-04-06 03:00:00 11 3 Sudeste 10 Sudeste 0.6 932.4 -0.1 92
2020-04-06 02:00:00 11 4 Sudeste 16 Sudeste 3 932.6 0 92
2020-04-06 01:00:00 11.4 3 Sur 14 Sudoeste 0.2 932.8 0.6 91
2020-04-06 00:00:00 11.4 3 Sudeste 17 Sur 0.2 932.5 0.6 91
2020-04-05 23:00:00 11.6 7 Sur 21 Sur 0.4 932.6 0.7 91
2020-04-05 22:00:00 11.2 9 Sur 18 Sur 0.6 932.2 0.7 91
2020-04-05 21:00:00 11.5 6 Sur 19 Sur 1.6 931.9 0.9 89
2020-04-05 20:00:00 11.9 7 Sur 18 Sudeste 4 931.9 0.5 90
2020-04-05 19:00:00 12.2 8 Sur 25 Sudeste 3 931.5 0.4 89
2020-04-05 18:00:00 12.5 12 Sur 25 Sur 1.6 931 -0.6 86
2020-04-05 17:00:00 12.7 13 Sur 38 Sudoeste 0.6 931.4 -0.5 82
2020-04-05 16:00:00 14.2 15 Sur 30 Sur 0.2 931.1 -0.7 71
2020-04-05 15:00:00 12.9 12 Sur 33 Sur 0.2 931.6 -0.4 81
2020-04-05 14:00:00 13.4 12 Sudoeste 32 Sur 0.2 931.9 0.2 76
2020-04-05 13:00:00 14.9 16 Sur 33 Sudoeste 0 931.8 -0.2 58
2020-04-05 12:00:00 15 17 Sur 33 Sur 0 932 0 55
2020-04-05 11:00:00 13.3 14 Sur 25 Sur 0 931.7 0.2 63
2020-04-05 10:00:00 11.2 10 Sur 23 Sur 0 932 0.9 72
2020-04-05 09:00:00 10.1 5 Sur 12 Sur 0 932 1 74
2020-04-05 08:00:00 9.8 4 Sur 12 Sur 0 931.5 0.6 73
2020-04-05 07:00:00 9.6 5 Sur 14 Este 0 931.1 0.3 74
2020-04-05 06:00:00 9.6 3 Este 7 Sudeste 0 931 0 77
2020-04-05 05:00:00 10.4 3 Sur 13 Sur 0 930.9 -0.2 72
2020-04-05 04:00:00 10.7 6 Sur 12 Sur 0 930.8 -0.2 70
2020-04-05 03:00:00 11 3 Sur 18 Sudeste 0 931 0.1 67
2020-04-05 02:00:00 11.4 5 Sudoeste 10 Sudoeste 0 931.1 0.4 63
2020-04-05 01:00:00 11.3 4 Sudoeste 9 Sur 0 931 0.5 64
2020-04-05 00:00:00 11.9 3 Sur 10 Sur 0 930.9 1.2 59
2020-04-04 23:00:00 13.2 5 Sur 17 Sudeste 0 930.7 1.3 49
2020-04-04 22:00:00 13.9 6 Sur 17 Sur 0 930.5 1.2 46
2020-04-04 21:00:00 15.3 10 Sudoeste 39 Sur 0 929.7 0.5 40
2020-04-04 20:00:00 16.3 11 Sur 39 Sur 0 929.4 -0.1 38
2020-04-04 19:00:00 17.4 14 Sur 39 Sur 0 929.3 -0.6 33
2020-04-04 18:00:00 18.6 10 Sudeste 29 Sur 0 929.2 -1.4 30
2020-04-04 17:00:00 18 9 Sudoeste 26 Sudoeste 0 929.5 -1.8 34
2020-04-04 16:00:00 17.9 13 Sudoeste 30 Sur 0 929.9 -2.2 34
2020-04-04 15:00:00 18.3 12 Sur 35 Sur 0 930.6 -2.3 33
2020-04-04 14:00:00 16.5 8 Sudeste 29 Sur 0 931.3 -1.6 41
2020-04-04 13:00:00 13.8 8 Sudeste 21 Sudeste 0 932.1 -0.7 49
2020-04-04 12:00:00 10.8 3 Este 12 Nordeste 0 932.9 0.4 63
2020-04-04 11:00:00 8.1 4 Nordeste 12 Nordeste 0 932.9 0.4 68
2020-04-04 10:00:00 5.6 8 Norte 15 Nordeste 0 932.8 0.3 78
2020-04-04 09:00:00 3 6 Norte 12 Norte 0 932.5 0.2 85
2020-04-04 08:00:00 1.3 3 Nordeste 9 Norte 0 932.5 -0.2 89
2020-04-04 07:00:00 1.6 4 Noroeste 16 Norte 0 932.5 -0.4 89
2020-04-04 06:00:00 1.9 5 Norte 17 Nordeste 0 932.3 -0.8 89
2020-04-04 05:00:00 2.3 3 Norte 16 Nordeste 0 932.7 -0.5 89
2020-04-04 04:00:00 3.4 4 Noroeste 17 Nordeste 0 932.9 -0.5 88
2020-04-04 03:00:00 3.4 2 Nordeste 17 Nordeste 0 933.1 -0.4 86
2020-04-04 02:00:00 3.8 3 Norte 17 Nordeste 0 933.2 -0.2 87
2020-04-04 01:00:00 4.7 0 Calma 15 Nordeste 0 933.4 0.2 84
2020-04-04 00:00:00 5.5 3 Norte 16 Nordeste 0 933.5 0.7 83
2020-04-03 23:00:00 6.2 5 Norte 16 Norte 0 933.4 0.7 79
2020-04-03 22:00:00 7.5 3 Norte 5 Norte 0 933.2 0.5 76
2020-04-03 21:00:00 11 2 Este 12 Sudeste 0 932.8 -0.1 61
2020-04-03 20:00:00 13.3 7 Sudeste 13 Este 0 932.7 -0.7 51
2020-04-03 19:00:00 14.1 3 Sudeste 15 Sudeste 0 932.7 -1.1 48
2020-04-03 18:00:00 14.6 3 Sudoeste 14 Sudeste 0 932.9 -1.6 47
2020-04-03 17:00:00 13.7 3 Sur 17 Sudeste 0 933.4 -1.8 50
2020-04-03 16:00:00 12.2 6 Este 14 Sur 0 933.8 -2 57
2020-04-03 15:00:00 11.4 6 Este 17 Este 0 934.5 -1.6 57
2020-04-03 14:00:00 10.2 7 Sudeste 14 Este 0 935.2 -0.6 59
2020-04-03 13:00:00 9.6 5 Sudeste 15 Este 0 935.8 0.2 58
2020-04-03 12:00:00 7.9 6 Este 21 Este 0 936.1 0.6 63
2020-04-03 11:00:00 6.3 10 Este 22 Este 0 935.8 0.7 69
2020-04-03 10:00:00 4.9 7 Nordeste 13 Nordeste 0 935.6 0.7 74
2020-04-03 09:00:00 2.6 3 Norte 5 Norte 0 935.5 0.9 90
2020-04-03 08:00:00 0.6 2 Noroeste 18 Este 0 935.1 0.4 90
2020-04-03 07:00:00 1.2 2 Norte 3 Norte 0 934.9 0.2 88
2020-04-03 06:00:00 2 0 Calma 14 Nordeste 0 934.6 -0.2 86
2020-04-03 05:00:00 3.3 3 Nordeste 8 Este 0 934.7 -0.3 84
2020-04-03 04:00:00 3.6 4 Sudeste 11 Sudeste 0 934.7 -0.1 82
2020-04-03 03:00:00 4.2 3 Este 12 Este 0 934.8 0.1 82
2020-04-03 02:00:00 5.3 3 Este 16 Este 0 935 0.7 80
2020-04-03 01:00:00 6 6 Este 14 Este 0 934.8 1.3 78
2020-04-03 00:00:00 7.8 5 Este 17 Este 0 934.7 2 76
2020-04-02 23:00:00 9.1 4 Este 19 Este 0 934.3 2.1 73
2020-04-02 22:00:00 9 0 Calma 8 Sudoeste 0 933.5 1.6 79
2020-04-02 21:00:00 11 4 Sudoeste 10 Sudeste 0 932.7 0.9 69
2020-04-02 20:00:00 12.9 5 Sudeste 16 Sudeste 0 932.2 0.7 60
2020-04-02 19:00:00 13.2 6 Sudeste 21 Este 0 931.9 0.2 61
2020-04-02 18:00:00 12.7 9 Este 23 Sudeste 0 931.8 -0.1 64
2020-04-02 17:00:00 13.3 11 Este 23 Este 0 931.5 -0.4 62
2020-04-02 16:00:00 12.4 5 Este 20 Este 0.2 931.7 -0.4 66
2020-04-02 15:00:00 13.4 11 Nordeste 27 Nordeste 0 931.9 -0.2 56
2020-04-02 14:00:00 12.1 13 Nordeste 24 Norte 0 931.9 0.3 61
2020-04-02 13:00:00 11.7 11 Nordeste 22 Nordeste 0 932.1 1.3 67
2020-04-02 12:00:00 10.5 8 Norte 18 Norte 0 932.1 1.6 74
2020-04-02 11:00:00 8.9 8 Norte 20 Norte 0 931.6 1.8 86
2020-04-02 10:00:00 8.1 7 Noroeste 14 Norte 0 930.8 1.1 89
2020-04-02 09:00:00 7.1 6 Noroeste 13 Noroeste 0 930.5 1.1 91
2020-04-02 08:00:00 6.8 7 Norte 17 Norte 0.4 929.8 0.3 92
2020-04-02 07:00:00 6.7 9 Norte 16 Norte 0.8 929.7 0 92
2020-04-02 06:00:00 6.8 8 Norte 19 Norte 1 929.4 -0.5 91
2020-04-02 05:00:00 6.8 9 Norte 22 Norte 0.6 929.5 -0.7 92
2020-04-02 04:00:00 6.9 7 Norte 16 Noroeste 0 929.7 -0.5 91
2020-04-02 03:00:00 6.9 6 Norte 14 Norte 0.4 929.9 -0.3 90
2020-04-02 02:00:00 7.2 6 Norte 13 Norte 0 930.2 0.2 89
2020-04-02 01:00:00 7.5 8 Norte 22 Nordeste 0 930.2 0.8 88
2020-04-02 00:00:00 7.8 10 Nordeste 20 Nordeste 0 930.2 1.4 90
2020-04-01 23:00:00 7.8 4 Norte 8 Norte 0.2 930 1.5 89
2020-04-01 22:00:00 7.9 0 Calma 10 Norte 0 929.4 0.9 87
2020-04-01 21:00:00 7.9 6 Nordeste 20 Norte 0 928.8 0.9 85
2020-04-01 20:00:00 8 8 Noroeste 21 Noroeste 0.4 928.5 0.8 85
2020-04-01 19:00:00 7.9 11 Noroeste 27 Noroeste 3.2 928.5 0.6 86
2020-04-01 18:00:00 9.7 14 Oeste 28 Noroeste 0 927.9 0.1 79
2020-04-01 17:00:00 11.1 6 Norte 33 Sur 2.2 927.7 -0.6 72
2020-04-01 16:00:00 10.6 18 Sur 41 Sur 1 927.9 -0.8 73
2020-04-01 15:00:00 12.6 8 Nordeste 23 Este 0 927.8 -1.2 51
2020-04-01 14:00:00 12.1 12 Este 26 Este 0 928.3 -0.8 56
2020-04-01 13:00:00 11.2 10 Nordeste 20 Nordeste 0 928.7 -0.2 66
2020-04-01 12:00:00 10.3 10 Nordeste 18 Este 0 929 0.7 74
2020-04-01 11:00:00 8.9 5 Nordeste 10 Nordeste 0 929.1 1.3 80
2020-04-01 10:00:00 5.9 2 Norte 11 Nordeste 0 928.9 1.7 90
2020-04-01 09:00:00 5.6 3 Nordeste 10 Norte 0 928.3 1.3 91
2020-04-01 08:00:00 5.4 2 Nordeste 8 Norte 0 927.8 0.8 91
2020-04-01 07:00:00 5.1 4 Nordeste 9 Nordeste 0 927.2 0.3 92
2020-04-01 06:00:00 5.2 3 Nordeste 14 Este 0 927 0.4 90
2020-04-01 05:00:00 5.9 4 Nordeste 14 Este 0 927 0.5 91
2020-04-01 04:00:00 6 8 Este 22 Sudeste 0.4 926.9 0.7 91
2020-04-01 03:00:00 5.8 8 Este 22 Este 0.2 926.6 0.5 91
2020-04-01 02:00:00 5.7 11 Este 24 Este 0.2 926.5 0.8 90
2020-04-01 01:00:00 5.8 12 Este 28 Este 0.6 926.2 0.9 89
2020-04-01 00:00:00 6 16 Este 33 Este 0.4 926.1 1.4 87
2020-03-31 23:00:00 6.4 19 Este 36 Este 0 925.7 1.4 83
2020-03-31 22:00:00 7.1 19 Este 35 Este 0 925.3 1.4 78
2020-03-31 21:00:00 7.9 20 Este 33 Este 0 924.7 0.8 75
2020-03-31 20:00:00 8.4 19 Este 46 Este 0 924.3 0.6 71
2020-03-31 19:00:00 8.4 21 Este 42 Este 0 923.9 0.2 71
2020-03-31 18:00:00 7.6 22 Este 46 Este 0 923.9 -0.1 73
2020-03-31 17:00:00 8 23 Este 52 Este 0 923.7 -0.6 66
2020-03-31 16:00:00 8.2 24 Este 51 Este 0 923.7 -0.8 64
2020-03-31 15:00:00 8.3 20 Este 47 Este 0 924 -1 60
2020-03-31 14:00:00 6.4 23 Este 43 Este 0 924.3 -0.5 63
2020-03-31 13:00:00 5.4 22 Este 45 Este 0 924.5 -0.7 63
2020-03-31 12:00:00 4.3 23 Nordeste 50 Este 0 925 -0.5 63
2020-03-31 11:00:00 3.5 24 Este 49 Este 0 924.8 -0.6 62
2020-03-31 10:00:00 2.4 21 Nordeste 46 Este 0 925.2 -0.8 62
2020-03-31 09:00:00 1.5 21 Nordeste 45 Este 0 925.5 -0.5 64
2020-03-31 08:00:00 1.3 20 Nordeste 40 Nordeste 0 925.4 -1.4 62
2020-03-31 07:00:00 1.2 17 Nordeste 38 Nordeste 0 926 -1.6 64
2020-03-31 06:00:00 1.4 16 Nordeste 40 Este 0 926 -2.4 59
2020-03-31 05:00:00 1.4 16 Nordeste 33 Nordeste 0 926.8 -2.4 59
2020-03-31 04:00:00 1.2 12 Nordeste 32 Nordeste 0 927.6 -2.4 66
2020-03-31 03:00:00 1.1 14 Nordeste 37 Nordeste 0 928.4 -2 67
2020-03-31 02:00:00 1.5 18 Nordeste 40 Nordeste 0 929.2 -1.5 63
2020-03-31 01:00:00 1.4 18 Nordeste 37 Nordeste 0 930 -0.7 64
2020-03-31 00:00:00 1.7 16 Nordeste 36 Este 0 930.4 0 61
2020-03-30 23:00:00 2.3 21 Este 40 Este 0 930.7 0.6 57
2020-03-30 22:00:00 2.9 24 Este 45 Este 0 930.7 0.5 53
2020-03-30 21:00:00 3.7 21 Este 41 Este 0 930.4 -0.2 47
2020-03-30 20:00:00 5.1 17 Este 43 Este 0 930.1 -0.8 44
2020-03-30 19:00:00 5.9 16 Este 42 Este 0 930.2 -1.5 39
2020-03-30 18:00:00 6.6 16 Este 41 Este 0 930.6 -2 37
2020-03-30 17:00:00 6.6 19 Este 44 Sudeste 0 930.9 -2.5 39
2020-03-30 16:00:00 7.1 18 Este 41 Este 0 931.7 -2.3 41
2020-03-30 15:00:00 6.3 17 Este 33 Este 0 932.6 -2 44
2020-03-30 14:00:00 5.9 14 Este 36 Sudeste 0 933.4 -1.4 48
2020-03-30 13:00:00 5 14 Este 31 Este 0 934 -0.8 54
2020-03-30 12:00:00 3.4 13 Este 31 Este 0 934.6 -0.2 62
2020-03-30 11:00:00 3.3 17 Este 36 Este 0 934.8 0.3 62
2020-03-30 10:00:00 2.9 19 Este 33 Este 0 934.8 0.3 66
2020-03-30 09:00:00 2.8 15 Este 33 Este 0 934.8 0.3 65
2020-03-30 08:00:00 2.7 17 Este 34 Este 0 934.5 -0.3 67
2020-03-30 07:00:00 2.5 14 Este 40 Este 0 934.5 -0.6 72
2020-03-30 06:00:00 3.6 17 Este 35 Este 0 934.5 -0.5 74
2020-03-30 05:00:00 3.4 13 Este 34 Este 0 934.8 -0.4 80
2020-03-30 04:00:00 4.5 21 Este 33 Nordeste 0 935.1 -0.4 73
2020-03-30 03:00:00 5.4 14 Este 29 Este 0 935 -0.6 68
2020-03-30 02:00:00 5.8 17 Este 35 Nordeste 0 935.2 0 70
2020-03-30 01:00:00 6.3 18 Este 35 Nordeste 0 935.5 0.6 71
2020-03-30 00:00:00 7.1 12 Nordeste 36 Nordeste 0 935.6 1.6 71
2020-03-29 23:00:00 7.8 22 Este 42 Nordeste 0 935.2 2 68
2020-03-29 22:00:00 8.5 21 Este 46 Este 0 934.9 2 63
2020-03-29 21:00:00 11.3 23 Este 48 Este 0 934 0.8 47
2020-03-29 20:00:00 15.6 5 Este 18 Sudeste 0 933.2 -0.4 31
2020-03-29 19:00:00 17.8 6 Sur 21 Este 0 932.9 -1.4 26
2020-03-29 18:00:00 18 5 Norte 18 Nordeste 0 933.2 -1.8 26
2020-03-29 17:00:00 17.5 4 Sudoeste 15 Sur 0 933.6 -2.2 25
2020-03-29 16:00:00 17.4 5 Sur 13 Sur 0 934.3 -2 28
2020-03-29 15:00:00 15.6 6 Este 14 Sur 0 935 -1.7 31
2020-03-29 14:00:00 14.6 6 Este 17 Sudeste 0 935.8 -1.3 36
2020-03-29 13:00:00 12.7 7 Nordeste 17 Este 0 936.3 -0.5 40
2020-03-29 12:00:00 11 8 Este 18 Este 0 936.7 -0.1 48
2020-03-29 11:00:00 8.4 7 Nordeste 16 Nordeste 0 937.1 0.7 58
2020-03-29 10:00:00 5.6 6 Nordeste 14 Este 0 936.8 0.7 71
2020-03-29 09:00:00 1.4 2 Norte 7 Norte 0 936.8 0.7 81
2020-03-29 08:00:00 0.6 3 Norte 17 Norte 0 936.4 0.3 82
2020-03-29 07:00:00 1.6 4 Nordeste 19 Nordeste 0 936.1 -0.1 79
2020-03-29 06:00:00 2 3 Norte 5 Noroeste 0 936.1 -0.3 79
2020-03-29 05:00:00 2.6 3 Nordeste 9 Norte 0 936.1 -0.4 77
2020-03-29 03:00:00 4.2 3 Norte 14 Nordeste 0 936.4 0.6 72
2020-03-29 01:00:00 4 4 Noroeste 15 Nordeste 0 936.5 0.7 72
2020-03-29 00:00:00 4.8 2 Norte 5 Nordeste 0 936.1 0.6 68
2020-03-28 23:00:00 6 2 Nordeste 6 Sudeste 0 935.8 1 64
2020-03-28 22:00:00 7.5 2 Oeste 8 Oeste 0 935.8 1.4 59
2020-03-28 21:00:00 8.6 0 Calma 3 Sudoeste 0 935.5 1.4 56
2020-03-28 20:00:00 11.7 0 Calma 5 Sudeste 0 934.8 0.9 45
2020-03-28 19:00:00 14.5 3 Sudeste 13 Este 0 934.4 0.3 29
2020-03-28 18:00:00 15.7 5 Sudeste 12 Sudeste 0 934.1 -0.3 26
2020-03-28 17:00:00 15.7 4 Sudoeste 14 Sudeste 0 933.9 -1 25
2020-03-28 16:00:00 14.8 7 Este 15 Este 0 934.1 -1.1 26
2020-03-28 15:00:00 15.3 6 Sur 17 Este 0 934.4 -1.3 25
2020-03-28 14:00:00 14.7 4 Este 16 Sudeste 0 934.9 -0.9 27
2020-03-28 13:00:00 13.9 5 Sudeste 16 Sudeste 0 935.2 -0.5 29
2020-03-28 12:00:00 12.1 4 Sudeste 15 Sudeste 0 935.7 0.3 36
2020-03-28 11:00:00 9.5 7 Nordeste 16 Nordeste 0 935.8 0.8 49
2020-03-28 10:00:00 6.6 8 Nordeste 18 Nordeste 0 935.7 1.4 59
2020-03-28 09:00:00 4.4 9 Nordeste 18 Norte 0 935.4 1.5 64
2020-03-28 08:00:00 0.2 4 Norte 16 Nordeste 0 935 1.6 78
2020-03-28 07:00:00 -0.2 4 Nordeste 13 Noroeste 0 934.3 1.1 76
2020-03-28 06:00:00 0.2 6 Noroeste 16 Nordeste 0 933.9 0.8 75
2020-03-28 05:00:00 0.9 3 Norte 18 Norte 0 933.4 0.3 75
2020-03-28 04:00:00 1.5 6 Noroeste 10 Norte 0 933.2 0.4 74
2020-03-28 03:00:00 2 4 Noroeste 15 Este 0 933.1 0.7 72
2020-03-28 02:00:00 2.5 2 Este 16 Nordeste 0 933.1 1 69
2020-03-28 01:00:00 2.7 4 Norte 21 Nordeste 0 932.8 1.3 69
2020-03-28 00:00:00 4 4 Norte 17 Norte 0 932.4 1.6 62
2020-03-27 23:00:00 4.1 6 Nordeste 10 Nordeste 0 932.1 2.1 59
2020-03-27 22:00:00 4.9 5 Norte 12 Este 0 931.5 2 55
2020-03-27 21:00:00 6.4 5 Norte 17 Nordeste 0 930.8 1.7 49
2020-03-27 20:00:00 9 2 Nordeste 16 Sudeste 0 930 1.2 40
2020-03-27 19:00:00 11.8 5 Este 31 Sudeste 0 929.5 0.2 28
2020-03-27 18:00:00 12.7 13 Este 30 Este 0 929.1 -0.4 24
2020-03-27 17:00:00 12.5 13 Sudeste 28 Sudeste 0 928.8 -1.1 25
2020-03-27 16:00:00 12 15 Este 37 Nordeste 0 929.3 -1.1 31
2020-03-27 15:00:00 11.3 12 Este 43 Este 0 929.5 -1.5 31
2020-03-27 14:00:00 10.2 17 Este 40 Este 0 929.9 -1.2 32
2020-03-27 13:00:00 9.2 15 Este 38 Este 0 930.4 -0.5 34
2020-03-27 12:00:00 8.1 17 Este 40 Nordeste 0 931 0.6 41
2020-03-27 11:00:00 6.3 19 Este 37 Este 0 931.1 1.1 51
2020-03-27 10:00:00 5 18 Nordeste 34 Nordeste 0 930.9 1.1 58
2020-03-27 09:00:00 3.2 13 Nordeste 21 Nordeste 0 930.4 0.7 66
2020-03-27 08:00:00 0.8 9 Norte 20 Nordeste 0 930 0.5 76
2020-03-27 07:00:00 0.2 8 Nordeste 19 Nordeste 0 929.8 0.5 76
2020-03-27 06:00:00 0.4 5 Nordeste 22 Este 0 929.7 0.3 74
2020-03-27 05:00:00 1 11 Este 21 Este 0 929.5 0.1 74
2020-03-27 04:00:00 0.6 7 Nordeste 15 Nordeste 0 929.3 -0.1 79
2020-03-27 03:00:00 1.5 5 Este 14 Este 0 929.4 0 77
2020-03-27 02:00:00 2.2 4 Nordeste 12 Este 0 929.4 0.2 77
2020-03-27 01:00:00 3 6 Este 17 Este 0 929.4 0.8 77
2020-03-27 00:00:00 3.7 6 Nordeste 21 Nordeste 0 929.4 1.1 74
2020-03-26 23:00:00 5 10 Nordeste 25 Nordeste 0 929.2 1.9 68
2020-03-26 22:00:00 6.3 8 Este 31 Nordeste 0 928.6 1.9 61
2020-03-26 21:00:00 7.9 15 Este 32 Este 0 928.3 2.2 56
2020-03-26 20:00:00 10.3 6 Este 18 Sudeste 0 927.3 1 45
2020-03-26 19:00:00 13.4 9 Sudeste 20 Sudeste 0 926.7 -0.1 31
2020-03-26 18:00:00 15.7 8 Sur 18 Sur 0 926.1 -1.3 25
2020-03-26 17:00:00 16 5 Sudoeste 16 Este 0 926.3 -1.9 22
2020-03-26 16:00:00 15.3 5 Sudeste 19 Este 0 926.8 -2.2 25
2020-03-26 15:00:00 14.4 6 Nordeste 18 Nordeste 0 927.4 -1.9 24
2020-03-26 14:00:00 13.3 4 Sudoeste 15 Este 0 928.2 -1.8 26
2020-03-26 13:00:00 12.1 5 Este 12 Sur 0 929 -1.3 31
2020-03-26 12:00:00 10.3 4 Sudoeste 12 Sur 0 929.3 -1.1 37
2020-03-26 11:00:00 8.7 4 Sur 16 Este 0 930 -0.6 48
2020-03-26 10:00:00 6.1 4 Sur 9 Sur 0 930.3 -0.1 58
2020-03-26 09:00:00 3.8 3 Este 7 Este 0 930.4 0.2 68
2020-03-26 08:00:00 0.2 0 Calma 7 Sudeste 0 930.6 0.6 85
2020-03-26 07:00:00 0.1 3 Este 9 Este 0 930.4 0 83
2020-03-26 06:00:00 0 0 Calma 8 Nordeste 0 930.2 0 78
2020-03-26 05:00:00 0 3 Norte 7 Nordeste 0 930 -0.8 73
2020-03-26 04:00:00 0.4 3 Nordeste 16 Nordeste 0 930.4 -0.5 72
2020-03-26 03:00:00 1.5 5 Norte 9 Norte 0 930.2 -0.9 69
2020-03-26 02:00:00 2.7 3 Noroeste 14 Nordeste 0 930.8 -0.1 67
2020-03-26 01:00:00 3.7 3 Noroeste 19 Nordeste 0 930.9 0 59
2020-03-26 00:00:00 5.2 4 Norte 21 Norte 0 931.1 0.4 53
2020-03-25 23:00:00 8.9 12 Norte 23 Noroeste 0 930.9 0.8 36
2020-03-25 22:00:00 8.3 7 Nordeste 23 Norte 0 930.9 1.2 36
2020-03-25 21:00:00 9.4 9 Norte 18 Nordeste 0 930.7 1.4 34
2020-03-25 20:00:00 12.7 9 Norte 22 Norte 0 930.1 0.7 28
2020-03-25 19:00:00 15.5 10 Norte 21 Norte 0 929.7 -0.1 27
2020-03-25 18:00:00 17.2 8 Norte 20 Noroeste 0 929.3 -1 26
2020-03-25 17:00:00 19.7 10 Norte 23 Norte 0 929.4 -1.6 17
2020-03-25 16:00:00 20.8 8 Norte 25 Noroeste 0 929.8 -1.9 22
2020-03-25 15:00:00 19.1 6 Norte 24 Nordeste 0 930.3 -2.1 27
2020-03-25 14:00:00 19 9 Noroeste 22 Noroeste 0 931 -1.9 25
2020-03-25 13:00:00 17.3 4 Norte 15 Oeste 0 931.7 -1.4 42
2020-03-25 12:00:00 14.9 7 Oeste 14 Oeste 0 932.4 -0.8 48
2020-03-25 11:00:00 12.9 3 Sudoeste 9 Sudoeste 0 932.9 -0.4 58
2020-03-25 10:00:00 10.6 2 Nordeste 14 Nordeste 0 933.1 -0.1 67
2020-03-25 09:00:00 7.3 4 Norte 17 Norte 0 933.2 0.2 76
2020-03-25 08:00:00 4 6 Norte 12 Noroeste 0 933.3 0.1 86
2020-03-25 07:00:00 3.5 0 Calma 12 Norte 0 933.2 -0.2 85
2020-03-25 06:00:00 4.1 3 Noroeste 11 Noroeste 0 933 -0.5 85
2020-03-25 05:00:00 3.7 3 Noroeste 19 Este 0 933.2 -0.5 84
2020-03-25 04:00:00 5.6 6 Norte 12 Norte 0 933.4 -0.4 81
2020-03-25 03:00:00 5.8 6 Noroeste 10 Noroeste 0 933.5 -0.3 82
2020-03-25 02:00:00 6 4 Noroeste 15 Norte 0 933.7 0.1 80
2020-03-25 01:00:00 6.4 5 Norte 16 Nordeste 0 933.8 0.2 78
2020-03-25 00:00:00 7 4 Norte 8 Norte 0 933.8 0.7 77
2020-03-24 23:00:00 7.8 5 Norte 13 Norte 0 933.6 0.8 76
2020-03-24 22:00:00 9.2 7 Norte 13 Nordeste 0 933.6 0.9 72
2020-03-24 21:00:00 9.9 4 Norte 16 Nordeste 0 933.1 0.6 67
2020-03-24 20:00:00 12.5 0 Calma 10 Sudeste 0 932.8 0.5 58
2020-03-24 19:00:00 15.3 5 Sudeste 19 Este 0 932.7 0 44
2020-03-24 18:00:00 15.9 8 Este 23 Sudeste 0 932.5 -0.6 40
2020-03-24 17:00:00 16.1 12 Este 28 Este 0 932.3 -1.4 42
2020-03-24 16:00:00 16.1 13 Este 28 Nordeste 0 932.7 -1.4 42
2020-03-24 15:00:00 16.1 16 Este 35 Este 0 933.1 -1.6 45
2020-03-24 14:00:00 15.3 14 Este 37 Este 0 933.7 -1.3 44
2020-03-24 13:00:00 14.6 15 Este 32 Este 0 934.1 -0.9 52
2020-03-24 12:00:00 13.6 14 Este 44 Este 0 934.7 -0.2 57
2020-03-24 11:00:00 12.7 14 Este 32 Este 0 935 0.4 62
2020-03-24 10:00:00 11 13 Este 29 Este 0 935 0.8 71
2020-03-24 09:00:00 8.7 10 Nordeste 20 Nordeste 0 934.9 0.7 78
2020-03-24 08:00:00 6.6 8 Nordeste 22 Nordeste 0 934.6 0.6 86
2020-03-24 07:00:00 5.6 6 Nordeste 20 Nordeste 0 934.2 0.1 88
2020-03-24 06:00:00 5.6 5 Norte 18 Nordeste 0 934.2 0.2 88
2020-03-24 05:00:00 6.1 7 Nordeste 19 Este 0 934 0 86
2020-03-24 04:00:00 6.8 8 Nordeste 19 Nordeste 0 934.1 0.1 84
2020-03-24 03:00:00 6.5 6 Norte 16 Este 0 934 0 85
2020-03-24 02:00:00 7.2 6 Este 16 Este 0 934 0.3 82
2020-03-24 01:00:00 7.7 6 Este 18 Este 0 934 0.7 80
2020-03-24 00:00:00 8.5 10 Este 28 Este 0 934 1.3 78
2020-03-23 23:00:00 9.3 11 Este 25 Este 0 933.7 1.5 76
2020-03-23 22:00:00 9.9 10 Este 23 Este 0 933.3 1.5 74
2020-03-23 21:00:00 11.6 8 Este 17 Este 0 932.7 1 64
2020-03-23 20:00:00 13 9 Este 19 Este 0 932.2 0.6 58
2020-03-23 19:00:00 14.3 10 Este 22 Nordeste 0 931.8 -0.1 51
2020-03-23 18:00:00 14.1 9 Este 24 Este 0 931.7 -0.6 54
2020-03-23 17:00:00 15.5 9 Este 26 Este 0 931.6 -1.2 45
2020-03-23 16:00:00 15.2 12 Este 34 Este 0 931.9 -1.6 47
2020-03-23 15:00:00 14.6 14 Este 30 Este 0 932.3 -1.4 50
2020-03-23 14:00:00 14.1 17 Este 32 Nordeste 0 932.8 -1.3 53
2020-03-23 13:00:00 13.6 17 Este 36 Sudeste 0 933.5 -0.7 55
2020-03-23 12:00:00 13.2 17 Este 33 Este 0 933.7 0 55
2020-03-23 11:00:00 11.5 13 Nordeste 26 Nordeste 0 934.1 0.5 66
2020-03-23 10:00:00 9.4 13 Nordeste 25 Nordeste 0 934.2 1.2 74
2020-03-23 09:00:00 6.7 8 Nordeste 18 Norte 0 933.7 1.2 78
2020-03-23 08:00:00 4.2 9 Norte 21 Norte 0 933.6 1.4 84
2020-03-23 07:00:00 4.3 10 Norte 18 Norte 0 933 1 83
2020-03-23 06:00:00 4.8 9 Norte 21 Norte 0 932.5 0.5 82
2020-03-23 05:00:00 5.2 9 Norte 17 Nordeste 0 932.2 0.2 83
2020-03-23 04:00:00 5.5 8 Norte 19 Norte 0 932 0 82
2020-03-23 03:00:00 6.4 9 Norte 22 Norte 0 932 -0.2 77
2020-03-23 02:00:00 7.3 7 Norte 26 Nordeste 0 932 0 76
2020-03-23 01:00:00 8.9 12 Nordeste 28 Nordeste 0 932 0.6 71
2020-03-23 00:00:00 9.3 9 Nordeste 19 Nordeste 0 932.2 1.6 71
2020-03-22 23:00:00 9.3 7 Nordeste 22 Nordeste 0 932 2.1 76
2020-03-22 22:00:00 9.5 3 Norte 10 Sudeste 0 931.4 2.2 82
2020-03-22 21:00:00 11.4 4 Norte 13 Nordeste 0 930.6 2.2 76
2020-03-22 20:00:00 12.6 5 Sur 16 Sur 0 929.9 1.5 67
2020-03-22 19:00:00 14.3 10 Sur 34 Sur 0 929.2 0.6 61
2020-03-22 18:00:00 16.2 5 Sudeste 14 Este 0 928.4 -0.5 45
2020-03-22 17:00:00 16.5 6 Este 19 Sudeste 0 928.4 -1.1 42
2020-03-22 16:00:00 16.4 3 Norte 18 Nordeste 0 928.6 -1.4 47
2020-03-22 15:00:00 15.3 5 Sudeste 19 Este 0 928.9 -1.2 48
2020-03-22 14:00:00 14.4 7 Este 21 Este 0 929.5 -0.8 59
2020-03-22 13:00:00 12.4 7 Este 14 Este 0 930 -0.1 69
2020-03-22 12:00:00 12.3 4 Noroeste 15 Nordeste 0 930.1 0.5 74
2020-03-22 11:00:00 10.4 5 Nordeste 18 Nordeste 0 930.3 1 80
2020-03-22 10:00:00 9.1 6 Norte 15 Norte 0 930.1 1.1 88
2020-03-22 09:00:00 8.2 3 Nordeste 15 Norte 0 929.6 0.9 92
2020-03-22 08:00:00 7.4 5 Norte 18 Nordeste 0 929.3 0.9 93
2020-03-22 07:00:00 7.5 0 Calma 6 Sudeste 0 929 0.4 93
2020-03-22 06:00:00 7 3 Nordeste 13 Este 0 928.7 -0.1 93
2020-03-22 05:00:00 7.2 2 Nordeste 13 Este 0 928.4 -0.5 90
2020-03-22 04:00:00 8.3 2 Norte 8 Sur 0 928.6 -0.1 91
2020-03-22 03:00:00 8.4 4 Sudeste 11 Sur 0 928.8 0.1 91
2020-03-22 02:00:00 8.3 0 Calma 7 Sudeste 0 928.9 0.4 91
2020-03-22 01:00:00 8.4 3 Sur 11 Sudoeste 0 928.7 0.7 88
2020-03-22 00:00:00 8.6 5 Sudoeste 19 Sudoeste 2 928.7 0.9 87
2020-03-21 23:00:00 8.7 6 Sudoeste 22 Sudeste 5.4 928.5 1 90
2020-03-21 22:00:00 9.4 6 Sudoeste 12 Sudoeste 0 928 1 83
2020-03-21 21:00:00 10.4 4 Sur 12 Sudoeste 0 927.8 0.9 80
2020-03-21 20:00:00 11.2 4 Sudoeste 8 Sur 0 927.5 0.5 72
2020-03-21 19:00:00 11.7 4 Sudoeste 11 Sudoeste 0 927 -0.3 70
2020-03-21 18:00:00 12.1 2 Sudoeste 10 Oeste 0 926.9 -0.6 69
2020-03-21 17:00:00 12.1 4 Sudoeste 14 Sudoeste 0 927 -1.2 69
2020-03-21 16:00:00 12.4 4 Sur 9 Oeste 0 927.3 -1.4 64
2020-03-21 15:00:00 12.7 4 Noroeste 12 Sudoeste 0 927.5 -1.6 61
2020-03-21 14:00:00 12.6 5 Sur 16 Sudoeste 0 928.2 -0.8 61
2020-03-21 13:00:00 12.2 7 Sudoeste 17 Sudoeste 0 928.7 -0.3 67
2020-03-21 12:00:00 10.3 3 Sudeste 9 Este 0 929.1 0.6 78
2020-03-21 11:00:00 9.8 5 Este 17 Este 0 929 0.4 79
2020-03-21 10:00:00 9 9 Este 19 Este 0 929 0.3 81
2020-03-21 09:00:00 8.2 8 Nordeste 17 Este 0 928.5 -0.2 85
2020-03-21 08:00:00 6.8 7 Nordeste 18 Nordeste 0 928.6 -0.3 88
2020-03-21 07:00:00 6.5 4 Norte 10 Nordeste 0 928.7 -0.3 90
2020-03-21 06:00:00 6 5 Norte 19 Noroeste 0 928.7 -0.9 90
2020-03-21 05:00:00 6.8 4 Este 16 Este 0 928.9 -0.8 91
2020-03-21 04:00:00 7.3 7 Nordeste 15 Nordeste 0 929 -1 92
2020-03-21 03:00:00 6.6 0 Calma 8 Nordeste 0 929.6 -0.7 92
2020-03-21 02:00:00 6.3 5 Norte 13 Este 0 929.7 -0.8 92
2020-03-21 01:00:00 6.8 5 Norte 6 Nordeste 0 930 -0.7 91
2020-03-21 00:00:00 7.2 4 Norte 7 Norte 0 930.3 -0.5 91
2020-03-20 23:00:00 7.6 4 Norte 17 Nordeste 0 930.5 0.1 90
2020-03-20 22:00:00 8.7 4 Nordeste 8 Nordeste 0 930.7 0.3 88
2020-03-20 21:00:00 9.9 2 Sur 6 Sudeste 0 930.8 0.4 87
2020-03-20 20:00:00 10.1 0 Calma 8 Norte 0 930.4 -0.4 86
2020-03-20 19:00:00 10.7 6 Noroeste 10 Noroeste 0 930.4 -0.5 84
2020-03-20 18:00:00 11.3 3 Oeste 15 Oeste 0 930.4 -0.4 80
2020-03-20 17:00:00 11.4 9 Oeste 24 Oeste 0 930.8 -0.4 81
2020-03-20 16:00:00 11.5 11 Oeste 22 Oeste 4 930.9 -0.9 84
2020-03-20 15:00:00 14.4 7 Sudeste 25 Este 0 930.8 -1.3 64
2020-03-20 14:00:00 14.5 8 Sudeste 24 Sudeste 0 931.2 -1 62
2020-03-20 13:00:00 12.5 9 Sudeste 28 Sudeste 0 931.8 -0.5 67
2020-03-20 12:00:00 12.1 10 Este 24 Este 0 932.1 0 70
2020-03-20 11:00:00 11 11 Este 21 Este 0 932.2 0.4 73
2020-03-20 10:00:00 9.1 9 Este 17 Este 0 932.3 0.7 81
2020-03-20 09:00:00 8.2 3 Nordeste 17 Este 0 932.1 0.6 85
2020-03-20 08:00:00 7.5 4 Nordeste 12 Nordeste 0 931.8 0.2 87
2020-03-20 07:00:00 7.7 3 Norte 9 Este 0 931.6 -0.2 86
2020-03-20 06:00:00 8.6 3 Nordeste 12 Norte 0 931.5 -0.5 84
2020-03-20 05:00:00 8.8 6 Nordeste 10 Nordeste 0 931.6 -0.7 83
2020-03-20 04:00:00 8.4 4 Nordeste 9 Nordeste 0 931.8 -0.9 83
2020-03-20 03:00:00 8.3 5 Norte 18 Nordeste 0 932 -1 83
2020-03-20 02:00:00 8.3 4 Norte 10 Nordeste 0 932.3 -1.1 86
2020-03-20 01:00:00 7.9 4 Norte 10 Este 0 932.7 -0.7 85
2020-03-20 00:00:00 8.5 0 Calma 6 Sudeste 0 933 -0.4 81
2020-03-19 23:00:00 9.3 0 Calma 5 Sur 0 933.4 0.1 81
2020-03-19 22:00:00 9.7 0 Calma 4 Norte 0 933.4 0.2 78
2020-03-19 21:00:00 11.5 0 Calma 7 Sur 0 933.4 0.2 72
2020-03-19 20:00:00 13.3 3 Sudeste 13 Sur 0 933.3 -0.5 67
2020-03-19 19:00:00 14.1 5 Nordeste 12 Nordeste 0 933.2 -1.1 66
2020-03-19 18:00:00 15.3 7 Este 14 Este 0 933.2 -1.7 61
2020-03-19 17:00:00 15.9 6 Este 15 Sudeste 0 933.8 -2 59
2020-03-19 16:00:00 15.8 7 Sudeste 16 Sudeste 0 934.3 -2.1 60
2020-03-19 15:00:00 16.1 5 Sudeste 15 Sudeste 0 934.9 -2.2 58
2020-03-19 14:00:00 15.7 6 Sudeste 17 Sudeste 0 935.8 -1.9 59
2020-03-19 13:00:00 14.8 6 Este 14 Este 0 936.4 -1.6 64
2020-03-19 12:00:00 14.5 4 Nordeste 13 Norte 0 937.1 -0.8 66
2020-03-19 11:00:00 12.4 4 Nordeste 11 Nordeste 0 937.7 -0.1 72
2020-03-19 10:00:00 10.3 6 Nordeste 21 Nordeste 0 938 0.1 79
2020-03-19 09:00:00 7.8 4 Nordeste 13 Nordeste 0 937.9 0.2 87
2020-03-19 08:00:00 6.3 5 Noroeste 17 Norte 0 937.8 0.3 89
2020-03-19 07:00:00 6.4 4 Noroeste 16 Nordeste 0 937.9 0 90
2020-03-19 06:00:00 6.3 5 Norte 15 Norte 0 937.7 -0.7 89
2020-03-19 05:00:00 6.2 6 Norte 16 Nordeste 0 937.5 -1.3 88
2020-03-19 04:00:00 7.3 4 Noroeste 15 Norte 0 937.9 -1.2 88
2020-03-19 03:00:00 8.1 5 Norte 17 Nordeste 0 938.4 -1.1 87
2020-03-19 02:00:00 8.8 3 Norte 10 Norte 0 938.8 -1 86
2020-03-19 01:00:00 8.9 5 Norte 9 Norte 0 939.1 -0.8 88
2020-03-19 00:00:00 9.1 3 Norte 6 Nordeste 0 939.5 -0.5 84
2020-03-18 23:00:00 10.1 0 Calma 14 Norte 0 939.8 0 82
2020-03-18 22:00:00 11.1 0 Calma 4 Norte 0 939.9 0.2 80
2020-03-18 21:00:00 11.8 2 Noroeste 4 Este 0 940 0.3 76
2020-03-18 20:00:00 13.6 2 Norte 6 Este 0 939.8 0 70
2020-03-18 19:00:00 15.7 4 Este 13 Este 0 939.7 -0.5 65
2020-03-18 18:00:00 16.9 8 Este 22 Este 0 939.7 -1.1 57
2020-03-18 17:00:00 17.7 7 Este 18 Nordeste 0 939.8 -1.5 52
2020-03-18 16:00:00 16.9 8 Nordeste 21 Este 0 940.2 -2 52
2020-03-18 15:00:00 16.7 11 Este 24 Este 0 940.8 -2.1 55
2020-03-18 14:00:00 16.2 8 Nordeste 22 Este 0 941.3 -2.1 55
2020-03-18 13:00:00 14.5 10 Nordeste 26 Este 0 942.2 -1.3 62
2020-03-18 12:00:00 13.2 9 Este 22 Nordeste 0 942.9 -0.5 67
2020-03-18 11:00:00 12 8 Nordeste 18 Nordeste 0 943.4 0.1 71
2020-03-18 10:00:00 9.5 8 Norte 15 Norte 0 943.5 0 81
2020-03-18 09:00:00 6.6 7 Norte 16 Norte 0 943.4 -0.1 90
2020-03-18 08:00:00 5.5 6 Norte 11 Norte 0 943.3 0.2 91
2020-03-18 07:00:00 5.4 5 Norte 18 Norte 0 943.5 0.3 90
2020-03-18 06:00:00 5.9 5 Norte 22 Nordeste 0 943.5 0 89
2020-03-18 05:00:00 6.5 7 Norte 19 Nordeste 0 943.1 -0.7 89
2020-03-18 04:00:00 6.6 8 Norte 22 Norte 0 943.2 -0.9 88
2020-03-18 03:00:00 7.2 9 Norte 17 Norte 0 943.5 -0.9 88
2020-03-18 02:00:00 7.6 8 Norte 22 Norte 0 943.8 -0.6 87
2020-03-18 01:00:00 8 10 Norte 17 Norte 0 944.1 -0.1 86
2020-03-18 00:00:00 8.3 8 Norte 14 Nordeste 0 944.4 0.7 86
2020-03-17 23:00:00 8.6 8 Norte 21 Nordeste 0 944.4 1.4 84
2020-03-17 22:00:00 9.3 8 Nordeste 23 Nordeste 0 944.2 1.9 81
2020-03-17 21:00:00 9.9 10 Nordeste 24 Este 0 943.7 1.5 80
2020-03-17 20:00:00 10.9 10 Nordeste 26 Este 0 943 1.1 77
2020-03-17 19:00:00 12.3 12 Nordeste 31 Nordeste 0 942.3 0.7 72
2020-03-17 18:00:00 13.4 13 Nordeste 35 Nordeste 0 942.2 0.5 67
2020-03-17 17:00:00 13.8 18 Este 41 Este 0 941.9 0.2 65
2020-03-17 16:00:00 13.7 18 Este 40 Nordeste 0 941.6 -0.3 65
2020-03-17 15:00:00 13.5 23 Este 46 Sudeste 0 941.7 0.1 63
2020-03-17 14:00:00 13.9 21 Este 49 Este 0 941.7 -0.2 61
2020-03-17 13:00:00 13.2 24 Este 48 Este 0 941.9 0.1 61
2020-03-17 12:00:00 12.4 27 Este 53 Este 0 941.6 0.3 64
2020-03-17 11:00:00 11.6 26 Nordeste 54 Este 0 941.9 1.4 64
2020-03-17 10:00:00 9.8 21 Nordeste 50 Este 0 941.8 1.8 67
2020-03-17 09:00:00 8.5 23 Nordeste 52 Este 0 941.3 2 71
2020-03-17 08:00:00 7.6 23 Nordeste 44 Este 0 940.5 1.9 71
2020-03-17 07:00:00 6.8 17 Nordeste 30 Nordeste 0 940 1.3 70
2020-03-17 06:00:00 5.6 9 Norte 21 Nordeste 0 939.3 0.9 71
2020-03-17 05:00:00 5.1 11 Norte 23 Norte 0 938.6 0.4 70
2020-03-17 04:00:00 3.8 4 Norte 18 Nordeste 0 938.7 1 76
2020-03-17 03:00:00 4.2 8 Norte 23 Nordeste 0 938.4 0.9 72
2020-03-17 02:00:00 5.7 14 Nordeste 32 Nordeste 0 938.2 1 64
2020-03-17 01:00:00 6.7 19 Nordeste 36 Nordeste 0 937.7 1.1 58
2020-03-17 00:00:00 6.8 19 Norte 39 Norte 0 937.5 1.5 59
2020-03-16 23:00:00 6.9 19 Norte 42 Norte 0 937.2 2.1 58
2020-03-16 22:00:00 6.4 13 Norte 32 Norte 0 936.6 2.1 60
2020-03-16 21:00:00 6.5 15 Norte 41 Norte 0 936 2.4 59
2020-03-16 20:00:00 7.6 17 Norte 36 Norte 0 935.1 1.7 55
2020-03-16 19:00:00 9 23 Nordeste 51 Nordeste 0 934.5 1.3 48
2020-03-16 18:00:00 9.4 25 Norte 54 Nordeste 0 933.6 1 46
2020-03-16 17:00:00 9.9 25 Nordeste 50 Nordeste 0 933.4 0.7 44
2020-03-16 16:00:00 10.7 26 Nordeste 44 Nordeste 0 933.2 0.1 42
2020-03-16 15:00:00 10.5 22 Nordeste 42 Nordeste 0 932.6 -0.5 45
2020-03-16 14:00:00 10 23 Norte 47 Nordeste 0 932.7 0.2 44
2020-03-16 13:00:00 8.3 17 Nordeste 31 Norte 0 933.1 0.7 54
2020-03-16 12:00:00 7.5 19 Norte 39 Norte 0 933.1 1.9 57
2020-03-16 11:00:00 6.5 19 Norte 41 Norte 0 932.5 1.4 66
2020-03-16 10:00:00 5.7 19 Norte 40 Norte 0 932.4 1.9 70
2020-03-16 09:00:00 5.2 21 Noroeste 35 Noroeste 0.2 931.2 1.3 71
2020-03-16 08:00:00 3.8 17 Norte 33 Norte 0 931.1 1.2 77
2020-03-16 07:00:00 3.4 11 Norte 32 Norte 0.2 930.5 0.8 82
2020-03-16 06:00:00 2.9 17 Norte 40 Norte 0.8 929.9 0 86
2020-03-16 05:00:00 2.1 14 Norte 30 Norte 1.4 929.9 -0.1 89
2020-03-16 04:00:00 2.4 14 Norte 33 Noroeste 0.4 929.7 -0.2 89
2020-03-16 03:00:00 2.4 15 Noroeste 32 Norte 0.2 929.9 -0.1 89
2020-03-16 02:00:00 2.7 16 Noroeste 37 Norte 0 930 0.2 86
2020-03-16 01:00:00 3.1 17 Norte 35 Norte 0 929.9 0.3 83
2020-03-16 00:00:00 2.5 15 Noroeste 43 Norte 0 930 1.2 88
2020-03-15 23:00:00 2.5 22 Norte 47 Norte 0.4 929.8 2.1 89
2020-03-15 22:00:00 2.5 20 Noroeste 57 Noroeste 1 929.6 3 89
2020-03-15 21:00:00 4.6 28 Noroeste 56 Noroeste 0.2 928.8 2.6 75
2020-03-15 20:00:00 9.2 16 Noroeste 40 Noroeste 0 927.7 0.7 54
2020-03-15 19:00:00 13.1 14 Oeste 41 Oeste 0 926.6 -1.1 46
2020-03-15 18:00:00 15.2 15 Sudoeste 42 Sudoeste 0 926.2 -1.7 33
2020-03-15 17:00:00 15.9 14 Oeste 39 Oeste 0 927 -1.3 33
2020-03-15 16:00:00 16.2 12 Oeste 37 Sudoeste 0 927.7 -1.4 30
2020-03-15 15:00:00 17.1 17 Oeste 39 Sudoeste 0 927.9 -2.5 32
2020-03-15 14:00:00 18.4 16 Sudoeste 35 Sur 0 928.3 -3.3 31
2020-03-15 13:00:00 17.1 10 Sur 28 Sudoeste 0 929.1 -3 34
2020-03-15 12:00:00 13.9 7 Sur 19 Sur 0 930.4 -1.9 43
2020-03-15 11:00:00 10.8 5 Sur 11 Sudoeste 0 931.6 -0.6 51
2020-03-15 10:00:00 7.3 2 Sudoeste 9 Sur 0 932.1 -0.5 62
2020-03-15 09:00:00 4.7 2 Sudeste 16 Nordeste 0 932.3 -0.5 72
2020-03-15 08:00:00 0.8 0 Calma 5 Sudoeste 0 932.2 -0.9 82
2020-03-15 07:00:00 0.5 3 Norte 15 Norte 0 932.6 -1 85
2020-03-15 06:00:00 1.6 2 Este 15 Este 0 932.8 -1.5 81
2020-03-15 05:00:00 3.2 6 Norte 18 Nordeste 0 933.1 -1.7 78
2020-03-15 04:00:00 3.3 5 Norte 9 Noroeste 0 933.6 -1.7 80
2020-03-15 03:00:00 3.3 3 Norte 5 Norte 0 934.3 -1.4 79
2020-03-15 02:00:00 3.8 3 Norte 4 Nordeste 0 934.8 -1.1 72
2020-03-15 01:00:00 5.5 0 Calma 5 Sudeste 0 935.3 -0.6 66
2020-03-15 00:00:00 5.8 0 Calma 4 Este 0 935.7 -0.2 66
2020-03-14 23:00:00 6.7 0 Calma 4 Sudeste 0 935.9 0.1 64
2020-03-14 22:00:00 7.2 0 Calma 3 Norte 0 935.9 0.1 63
2020-03-14 21:00:00 8.6 0 Calma 3 Sudeste 0 935.9 0 59
2020-03-14 20:00:00 11.7 0 Calma 8 Sudeste 0 935.8 -0.4 48
2020-03-14 19:00:00 16.2 5 Sudeste 13 Este 0 935.8 -0.9 32
2020-03-14 18:00:00 18.3 4 Sur 10 Sur 0 935.9 -1.3 27
2020-03-14 17:00:00 18.3 5 Sudoeste 14 Sudoeste 0 936.2 -2 26
2020-03-14 16:00:00 17.8 6 Sur 15 Sudeste 0 936.7 -2.1 28
2020-03-14 15:00:00 16.2 5 Sudeste 18 Sudeste 0 937.2 -2.2 30
2020-03-14 14:00:00 14.8 6 Sudeste 17 Sudeste 0 938.2 -1.6 42
2020-03-14 13:00:00 13.2 5 Sur 15 Sudeste 0 938.8 -1.2 50
2020-03-14 12:00:00 10.5 5 Sur 14 Sudeste 0 939.4 -0.3 62
2020-03-14 11:00:00 7.4 4 Nordeste 12 Nordeste 0 939.8 0.5 70
2020-03-14 10:00:00 3.4 4 Nordeste 9 Este 0 940 1.1 90
2020-03-14 09:00:00 2.1 4 Nordeste 8 Este 0 939.7 1 89
2020-03-14 08:00:00 -0.4 3 Nordeste 4 Nordeste 0 939.3 0.9 91
2020-03-14 07:00:00 0 0 Calma 3 Sudoeste 0 938.9 0.6 89
2020-03-14 06:00:00 0.6 2 Norte 6 Este 0 938.7 -0.2 89
2020-03-14 05:00:00 1.5 3 Norte 5 Este 0 938.4 -0.6 89
2020-03-14 04:00:00 2.2 2 Oeste 5 Sudoeste 0 938.3 -0.8 86
2020-03-14 03:00:00 2.9 0 Calma 15 Nordeste 0 938.9 -0.4 86
2020-03-14 02:00:00 3.5 3 Norte 16 Nordeste 0 939 0.1 86
2020-03-14 01:00:00 4.4 3 Norte 16 Nordeste 0 939.1 0.6 83
2020-03-14 00:00:00 5.2 4 Norte 11 Nordeste 0 939.3 1.3 80
2020-03-13 23:00:00 6.5 6 Nordeste 13 Este 0 938.9 1.8 78
2020-03-13 22:00:00 7.4 5 Este 22 Este 0 938.5 2 76
2020-03-13 21:00:00 8.6 5 Este 19 Este 0 938 1.9 71
2020-03-13 20:00:00 10.4 6 Este 21 Sudeste 0 937.1 1 66
2020-03-13 19:00:00 13.1 10 Este 26 Sudeste 0 936.5 0.1 58
2020-03-13 18:00:00 15 11 Este 24 Sudeste 0 936.1 -0.5 52
2020-03-13 17:00:00 16.4 9 Este 19 Nordeste 0 936.1 -1 47
2020-03-13 16:00:00 16 11 Nordeste 26 Este 0 936.4 -1.4 48
2020-03-13 15:00:00 15.2 11 Este 25 Este 0 936.6 -1.8 51
2020-03-13 14:00:00 14.3 12 Este 28 Nordeste 0 937.1 -1.4 54
2020-03-13 13:00:00 13.8 13 Nordeste 31 Nordeste 0 937.8 -0.8 56
2020-03-13 12:00:00 12.6 13 Nordeste 30 Este 0 938.4 0.1 59
2020-03-13 11:00:00 11.2 18 Nordeste 35 Este 0 938.5 0.4 61
2020-03-13 10:00:00 10.1 16 Nordeste 29 Nordeste 0 938.6 0.8 63
2020-03-13 09:00:00 9.2 15 Nordeste 32 Nordeste 0 938.3 0.8 68
2020-03-13 08:00:00 8.3 15 Nordeste 36 Nordeste 0 938.1 0.6 73
2020-03-13 07:00:00 8.1 14 Nordeste 33 Nordeste 0 937.8 0.2 75
2020-03-13 06:00:00 7.7 16 Nordeste 34 Nordeste 0 937.5 -0.3 76
2020-03-13 05:00:00 7.6 15 Nordeste 30 Nordeste 0 937.5 -0.4 77
2020-03-13 04:00:00 7.3 10 Nordeste 24 Nordeste 0 937.6 -0.5 80
2020-03-13 03:00:00 7.5 11 Nordeste 24 Nordeste 0 937.8 -0.7 79
2020-03-13 02:00:00 7.8 11 Nordeste 26 Nordeste 0 937.9 -0.3 78
2020-03-13 01:00:00 8.2 10 Nordeste 28 Este 0 938.1 0.3 77
2020-03-13 00:00:00 8.6 13 Nordeste 29 Este 0 938.5 1.5 76
2020-03-12 23:00:00 9.4 14 Nordeste 31 Nordeste 0 938.2 2.1 74
2020-03-12 22:00:00 10.5 14 Nordeste 39 Nordeste 0 937.8 2.5 75
2020-03-12 21:00:00 11.8 12 Nordeste 30 Nordeste 0 937 2.2 74
2020-03-12 20:00:00 13.5 15 Este 29 Este 0 936.1 1.4 68
2020-03-12 19:00:00 16 13 Este 25 Este 0 935.3 0.3 66
2020-03-12 18:00:00 18.6 8 Este 16 Este 0 934.8 -0.8 56
2020-03-12 17:00:00 19.6 6 Sudeste 18 Sudeste 0 934.7 -1.8 50
2020-03-12 16:00:00 20 6 Sudeste 14 Sudeste 0 935 -2.2 46
2020-03-12 15:00:00 19.2 4 Sudeste 16 Sudeste 0 935.6 -1.9 44
2020-03-12 14:00:00 18.3 5 Este 18 Este 0 936.5 -1.4 47
2020-03-12 13:00:00 16.8 4 Este 10 Norte 0 937.2 -0.7 51
2020-03-12 12:00:00 15.1 5 Norte 10 Este 0 937.5 -0.2 58
2020-03-12 11:00:00 12.7 4 Norte 13 Nordeste 0 937.9 0.6 66
2020-03-12 10:00:00 10.5 6 Norte 12 Norte 0 937.9 0.9 72
2020-03-12 09:00:00 9 3 Norte 8 Norte 0 937.7 0.6 79
2020-03-12 08:00:00 8.1 5 Norte 8 Noroeste 0 937.3 0 81
2020-03-12 07:00:00 8 3 Norte 15 Nordeste 0 937 -0.5 81
2020-03-12 06:00:00 9 2 Nordeste 9 Norte 0 937.1 -1 77
2020-03-12 05:00:00 9.5 4 Noroeste 6 Noroeste 0 937.3 -1.1 75
2020-03-12 04:00:00 9.1 4 Noroeste 6 Norte 0 937.5 -1.2 76
2020-03-12 03:00:00 9.6 2 Oeste 3 Sur 0 938.1 -0.8 73
2020-03-12 02:00:00 10.2 0 Calma 4 Norte 0 938.4 -0.7 70
2020-03-12 01:00:00 11.8 0 Calma 5 Sur 0 938.7 -0.2 62
2020-03-12 00:00:00 14.2 3 Oeste 9 Oeste 0 938.9 0.2 53
2020-03-11 23:00:00 14.9 5 Sudoeste 8 Sudoeste 0 939.1 0.4 50
2020-03-11 22:00:00 16.1 3 Sudoeste 18 Sudoeste 0 938.9 0.3 47
2020-03-11 21:00:00 19.2 8 Sudoeste 18 Sudoeste 0 938.7 0.4 35
2020-03-11 20:00:00 19.3 5 Sudoeste 21 Sudoeste 0 938.7 0.3 36
2020-03-11 19:00:00 21.4 12 Sudoeste 26 Sudoeste 0 938.6 0 31
2020-03-11 18:00:00 23.7 14 Sudoeste 34 Sudoeste 0 938.3 -1 24
2020-03-11 17:00:00 24.6 15 Sudoeste 33 Oeste 0 938.4 -1.9 22
2020-03-11 16:00:00 24.2 13 Sudoeste 31 Sudoeste 0 938.6 -2.6 24
2020-03-11 15:00:00 21.8 12 Sudoeste 26 Sur 0 939.3 -2.5 29
2020-03-11 14:00:00 19.7 8 Sur 19 Sur 0 940.3 -1.9 35
2020-03-11 13:00:00 18 5 Sur 13 Sur 0 941.2 -0.9 40
2020-03-11 12:00:00 15 4 Sudoeste 10 Sudeste 0 941.8 0 45
2020-03-11 11:00:00 12.2 4 Nordeste 15 Norte 0 942.2 0.5 50
2020-03-11 10:00:00 9.6 3 Nordeste 16 Este 0 942.1 0.6 59
2020-03-11 09:00:00 6.1 3 Nordeste 7 Norte 0 941.8 0.4 70
2020-03-11 08:00:00 2.8 0 Calma 4 Nordeste 0 941.7 0.4 81
2020-03-11 07:00:00 2.7 2 Norte 6 Norte 0 941.5 0.2 78
2020-03-11 06:00:00 2.9 2 Norte 5 Nordeste 0 941.4 -0.4 78
2020-03-11 05:00:00 4 0 Calma 5 Norte 0 941.3 -0.8 76
2020-03-11 04:00:00 4.2 2 Norte 5 Noroeste 0 941.3 -0.7 73
2020-03-11 03:00:00 5.7 2 Sudoeste 4 Sudoeste 0 941.8 -0.5 68
2020-03-11 02:00:00 7.3 3 Sudoeste 11 Sur 0 942.1 0 61
2020-03-11 01:00:00 7.7 5 Noroeste 8 Noroeste 0 942 -0.1 60
2020-03-11 00:00:00 10.4 0 Calma 15 Oeste 0 942.3 0.4 48
2020-03-10 23:00:00 13.9 8 Oeste 17 Oeste 0 942.1 0.7 36
2020-03-10 22:00:00 14.7 5 Oeste 16 Oeste 0 942.1 1 33
2020-03-10 21:00:00 14.8 4 Sudeste 21 Oeste 0 941.9 1 28
2020-03-10 20:00:00 18.3 11 Sudoeste 18 Sudoeste 0 941.4 0.4 18
2020-03-10 19:00:00 20.5 13 Sudoeste 22 Sudoeste 0 941.1 -0.2 15
2020-03-10 18:00:00 22.4 9 Sudoeste 29 Oeste 0 940.9 -0.8 18
2020-03-10 17:00:00 22.9 13 Sudoeste 26 Sudoeste 0 941 -1.4 16
2020-03-10 16:00:00 22.8 5 Sudoeste 18 Sudoeste 0 941.3 -2 16
2020-03-10 15:00:00 20.8 4 Este 14 Norte 0 941.7 -2.3 31
2020-03-10 14:00:00 19.3 4 Sur 17 Sudoeste 0 942.4 -1.8 34
2020-03-10 13:00:00 16.3 6 Sur 13 Sudoeste 0 943.3 -0.9 43
2020-03-10 12:00:00 13.7 4 Sur 17 Este 0 944 0.2 52
2020-03-10 11:00:00 11.2 2 Este 7 Este 0 944.2 0.8 62
2020-03-10 10:00:00 8.2 0 Calma 6 Este 0 944.2 0.9 73
2020-03-10 09:00:00 5.4 3 Nordeste 5 Nordeste 0 943.8 0.7 83
2020-03-10 08:00:00 3.9 2 Nordeste 18 Este 0 943.4 0.3 84
2020-03-10 07:00:00 4.2 2 Este 4 Este 0 943.3 0.2 81
2020-03-10 06:00:00 4.4 0 Calma 6 Norte 0 943.1 -0.2 80
2020-03-10 05:00:00 4.6 4 Norte 8 Sur 0 943.1 -0.4 78
2020-03-10 04:00:00 5.5 3 Sudoeste 6 Sur 0 943.1 -0.5 75
2020-03-10 03:00:00 6.2 2 Sudoeste 11 Sur 0 943.3 -0.7 71
2020-03-10 02:00:00 6.5 4 Nordeste 6 Este 0 943.5 -0.6 70
2020-03-10 01:00:00 7.8 3 Oeste 8 Oeste 0 943.6 -0.3 64
2020-03-10 00:00:00 7.7 4 Norte 17 Nordeste 0 944 0.3 65
2020-03-09 23:00:00 7.6 7 Norte 11 Norte 0 944.1 1.1 65
2020-03-09 22:00:00 10.2 2 Nordeste 16 Nordeste 0 943.9 1 60
2020-03-09 21:00:00 10.8 0 Calma 20 Norte 0 943.7 1.4 58
2020-03-09 20:00:00 12.6 3 Este 13 Sur 0 943 0.4 50
2020-03-09 19:00:00 14.8 7 Norte 17 Noroeste 0 942.9 0.1 35
2020-03-09 18:00:00 17.4 9 Noroeste 19 Noroeste 0 942.3 -0.8 24
2020-03-09 17:00:00 17.7 10 Noroeste 20 Noroeste 0 942.6 -1.5 21
2020-03-09 16:00:00 17.1 9 Sur 20 Sudeste 0 942.8 -2.1 33
2020-03-09 15:00:00 16.3 6 Oeste 17 Sudoeste 0 943.1 -2 27
2020-03-09 14:00:00 15 6 Noroeste 16 Norte 0 944.1 -1 33
2020-03-09 13:00:00 13.4 6 Norte 19 Noroeste 0 944.9 0.3 38
2020-03-09 12:00:00 12.2 9 Noroeste 23 Norte 0 945.1 0.9 40
2020-03-09 11:00:00 10.4 12 Noroeste 30 Noroeste 0 945.1 1.2 51
2020-03-09 10:00:00 8.1 13 Noroeste 28 Noroeste 0 944.6 1.1 60
2020-03-09 09:00:00 6.4 14 Noroeste 25 Noroeste 0 944.2 1.3 66
2020-03-09 08:00:00 4.1 10 Noroeste 17 Noroeste 0 943.9 1 72
2020-03-09 07:00:00 1.9 2 Nordeste 10 Oeste 0 943.5 0.3 81
2020-03-09 06:00:00 3.9 6 Oeste 12 Oeste 0 942.9 -0.1 74
2020-03-09 05:00:00 4 6 Sur 15 Noroeste 0 942.9 -0.3 75
2020-03-09 04:00:00 5.5 5 Oeste 15 Sudoeste 0 943.2 -0.1 68
2020-03-09 03:00:00 7.4 8 Oeste 26 Sudoeste 0 943 0.1 60
2020-03-09 02:00:00 6.2 4 Sudoeste 19 Norte 0 943.2 0.6 66
2020-03-09 01:00:00 7.4 11 Noroeste 21 Noroeste 0 943.3 0.9 62
2020-03-09 00:00:00 7.5 4 Oeste 15 Oeste 0 942.9 1.3 69